Time;durP1;ratioP1;P1;durP2;ratioP2;P2;SDS_P1;SDS_P2;PMS_P1;PMS_P2;Temp;Humidity;BMP_temperature;BMP_pressure;BME280_temperature;BME280_humidity;BME280_pressure;Samples;Min_cycle;Max_cycle;Signal;HPM_P1;HPM_P2
2023/04/22 00:01:32;;;;;;;1.05;0.40;;;8.50;99.90;;;;;;5051873;28;20036;-86
2023/04/22 00:03:58;;;;;;;1.23;0.40;;;8.40;99.90;;;;;;5071369;28;20020;-84
2023/04/22 00:06:23;;;;;;;1.05;0.35;;;8.40;99.90;;;;;;5069389;28;20143;-84
2023/04/22 00:08:49;;;;;;;0.95;0.38;;;8.50;99.90;;;;;;5036444;28;20017;-85
2023/04/22 00:11:15;;;;;;;1.02;0.40;;;8.50;99.90;;;;;;5037823;28;20035;-85
2023/04/22 00:13:41;;;;;;;1.17;0.40;;;8.50;99.90;;;;;;5037627;28;20164;-83
2023/04/22 00:16:07;;;;;;;1.30;0.60;;;8.50;99.90;;;;;;5053759;28;20127;-84
2023/04/22 00:18:34;;;;;;;1.65;0.50;;;8.40;99.90;;;;;;5054626;28;20062;-86
2023/04/22 00:21:00;;;;;;;0.90;0.40;;;8.40;99.90;;;;;;5036849;28;20385;-84
2023/04/22 00:23:30;;;;;;;1.15;0.50;;;8.40;99.90;;;;;;5033349;28;20085;-85
2023/04/22 00:25:56;;;;;;;1.27;0.57;;;8.40;99.90;;;;;;5034379;28;20281;-83
2023/04/22 00:28:21;;;;;;;1.33;0.50;;;8.40;99.90;;;;;;5047680;28;20175;-86
2023/04/22 00:30:47;;;;;;;1.65;0.50;;;8.20;99.90;;;;;;5035908;28;20383;-84
2023/04/22 00:33:13;;;;;;;2.17;0.60;;;8.30;99.90;;;;;;5050833;28;20043;-85
2023/04/22 00:35:38;;;;;;;1.75;0.70;;;8.20;99.90;;;;;;5067482;28;20025;-85
2023/04/22 00:38:04;;;;;;;1.63;0.70;;;8.20;99.90;;;;;;5054307;28;20025;-85
2023/04/22 00:40:30;;;;;;;1.52;0.70;;;8.20;99.90;;;;;;5032629;28;20024;-85
2023/04/22 00:42:56;;;;;;;2.25;0.85;;;8.10;99.90;;;;;;5032607;28;20484;-84
2023/04/22 00:45:22;;;;;;;2.20;0.80;;;8.00;99.90;;;;;;5050458;28;20025;-85
2023/04/22 00:47:48;;;;;;;1.50;0.70;;;7.90;99.90;;;;;;5050328;28;20025;-85
2023/04/22 00:50:14;;;;;;;3.92;0.70;;;7.80;99.90;;;;;;5067806;28;20063;-85
2023/04/22 00:52:40;;;;;;;1.92;0.73;;;7.80;99.90;;;;;;5051572;28;20507;-85
2023/04/22 00:55:06;;;;;;;3.22;0.80;;;7.70;99.90;;;;;;5047209;28;20025;-85
2023/04/22 00:57:34;;;;;;;1.73;0.70;;;7.70;99.90;;;;;;5035807;28;20031;-86
2023/04/22 01:00:01;;;;;;;2.00;0.70;;;7.80;99.90;;;;;;5066070;28;20021;-85
2023/04/22 01:02:27;;;;;;;1.65;0.70;;;7.70;99.90;;;;;;5035648;28;20477;-85
2023/04/22 01:04:53;;;;;;;2.17;0.88;;;7.60;99.90;;;;;;5031687;28;20029;-86
2023/04/22 01:07:20;;;;;;;1.90;1.00;;;7.50;99.90;;;;;;5035429;28;20036;-85
2023/04/22 01:09:46;;;;;;;1.45;0.60;;;7.40;99.90;;;;;;5052351;28;20067;-86
2023/04/22 01:12:12;;;;;;;2.70;0.70;;;7.30;99.90;;;;;;5032849;28;20059;-86
2023/04/22 01:14:38;;;;;;;2.00;0.80;;;7.20;99.90;;;;;;5031910;28;20024;-86
2023/04/22 01:17:03;;;;;;;1.52;0.70;;;7.30;99.90;;;;;;5034778;28;20044;-86
2023/04/22 01:19:29;;;;;;;1.60;0.80;;;7.40;99.90;;;;;;5036864;28;20498;-85
2023/04/22 01:21:56;;;;;;;1.55;0.70;;;7.50;99.90;;;;;;5049979;28;20462;-86
2023/04/22 01:24:22;;;;;;;2.40;0.98;;;7.40;99.90;;;;;;5030762;28;20492;-86
2023/04/22 01:26:48;;;;;;;1.63;0.60;;;7.20;99.90;;;;;;5050921;28;20047;-85
2023/04/22 01:29:14;;;;;;;2.00;0.80;;;7.30;99.90;;;;;;5030118;28;20033;-85
2023/04/22 01:31:40;;;;;;;1.70;0.70;;;7.10;99.90;;;;;;5034215;28;20425;-86
2023/04/22 01:34:06;;;;;;;1.50;0.90;;;7.00;99.90;;;;;;5031880;28;20060;-86
2023/04/22 01:36:32;;;;;;;1.75;0.80;;;7.00;99.90;;;;;;5049508;28;20070;-86
2023/04/22 01:38:59;;;;;;;2.28;0.93;;;7.10;99.90;;;;;;5049558;28;20032;-86
2023/04/22 01:41:25;;;;;;;2.08;1.00;;;6.90;99.90;;;;;;5065024;28;20139;-86
2023/04/22 01:43:59;;;;;;;2.10;0.82;;;7.00;99.90;;;;;;5034396;28;20487;-85
2023/04/22 01:46:24;;;;;;;1.95;1.15;;;7.10;99.90;;;;;;5033668;28;20043;-84
2023/04/22 01:48:50;;;;;;;2.13;1.20;;;7.00;99.90;;;;;;5048653;28;20029;-85
2023/04/22 01:51:17;;;;;;;2.10;1.00;;;7.10;99.90;;;;;;5049131;28;20028;-84
2023/04/22 01:53:43;;;;;;;1.92;1.00;;;7.00;99.90;;;;;;5050578;28;20146;-85
2023/04/22 01:56:09;;;;;;;2.53;1.55;;;6.90;99.90;;;;;;5033875;28;20472;-85
2023/04/22 01:58:35;;;;;;;2.10;1.20;;;6.80;99.90;;;;;;5051092;28;20029;-85
2023/04/22 02:01:03;;;;;;;2.08;1.23;;;7.00;99.90;;;;;;5032794;28;20024;-85
2023/04/22 02:03:29;;;;;;;2.15;1.20;;;7.00;99.90;;;;;;5049570;28;20508;-85
2023/04/22 02:05:55;;;;;;;2.35;1.50;;;7.00;99.90;;;;;;5050494;28;20051;-84
2023/04/22 02:08:20;;;;;;;2.60;1.25;;;7.10;99.90;;;;;;5031033;28;20099;-84
2023/04/22 02:10:46;;;;;;;2.10;1.55;;;7.20;99.90;;;;;;5033879;28;20370;-84
2023/04/22 02:13:11;;;;;;;2.00;0.90;;;7.10;99.90;;;;;;5034102;28;20037;-85
2023/04/22 02:15:39;;;;;;;2.03;1.17;;;6.90;99.90;;;;;;5031559;28;20082;-84
2023/04/22 02:18:05;;;;;;;2.03;1.15;;;6.80;99.90;;;;;;5030062;28;20381;-84
2023/04/22 02:20:30;;;;;;;2.20;1.08;;;7.00;99.90;;;;;;5049319;28;20465;-85
2023/04/22 02:22:56;;;;;;;2.22;1.10;;;6.90;99.90;;;;;;5051302;28;20114;-85
2023/04/22 02:25:22;;;;;;;1.80;0.88;;;6.80;99.90;;;;;;5034431;28;20103;-86
2023/04/22 02:27:49;;;;;;;2.17;1.20;;;6.80;99.90;;;;;;5015654;28;20037;-85
2023/04/22 02:30:15;;;;;;;3.42;1.50;;;6.90;99.90;;;;;;5026844;28;20485;-84
2023/04/22 02:32:40;;;;;;;1.95;1.30;;;6.90;99.90;;;;;;5024703;28;20484;-85
2023/04/22 02:35:06;;;;;;;2.30;1.30;;;6.80;99.90;;;;;;5024209;28;20029;-85
2023/04/22 02:37:32;;;;;;;1.98;1.25;;;6.90;99.90;;;;;;5027504;28;20371;-84
2023/04/22 02:39:58;;;;;;;2.50;1.67;;;6.80;99.90;;;;;;5024449;28;20021;-84
2023/04/22 02:42:23;;;;;;;2.85;2.15;;;6.90;99.90;;;;;;5009011;28;20221;-85
2023/04/22 02:44:49;;;;;;;2.30;1.48;;;6.80;99.90;;;;;;5024512;28;20037;-85
2023/04/22 02:47:15;;;;;;;2.28;1.33;;;6.80;99.90;;;;;;5021128;28;20014;-85
2023/04/22 02:49:41;;;;;;;2.88;1.70;;;6.80;99.90;;;;;;5023922;28;20030;-86
2023/04/22 02:52:08;;;;;;;3.78;1.60;;;6.70;99.90;;;;;;5018534;28;20107;-85
2023/04/22 02:54:33;;;;;;;3.15;1.67;;;6.80;99.90;;;;;;5026272;28;20468;-86
2023/04/22 02:57:00;;;;;;;2.58;1.40;;;6.90;99.90;;;;;;5023086;28;20121;-85
2023/04/22 02:59:25;;;;;;;2.60;1.90;;;6.90;99.90;;;;;;5022604;28;20029;-85
2023/04/22 03:01:51;;;;;;;3.80;2.03;;;7.00;99.90;;;;;;5018229;28;20104;-86
2023/04/22 03:04:32;;;;;;;;;;;6.90;99.90;;;;;;5020839;28;20378;-86
2023/04/22 03:06:58;;;;;;;3.05;1.17;;;6.90;99.90;;;;;;5026345;28;19915;-86
2023/04/22 03:09:24;;;;;;;2.65;1.30;;;7.00;99.90;;;;;;5009842;28;20034;-86
2023/04/22 03:11:50;;;;;;;2.47;1.33;;;7.00;99.90;;;;;;5022844;28;20048;-86
2023/04/22 03:14:15;;;;;;;2.65;1.60;;;6.90;99.90;;;;;;5011469;28;20509;-86
2023/04/22 03:16:41;;;;;;;4.05;2.08;;;6.90;99.90;;;;;;5030419;28;20029;-85
2023/04/22 03:19:07;;;;;;;2.95;1.92;;;6.90;99.90;;;;;;5027269;28;20484;-85
2023/04/22 03:21:32;;;;;;;3.08;2.30;;;6.90;99.90;;;;;;5026491;28;20025;-86
2023/04/22 03:23:59;;;;;;;4.88;2.10;;;7.00;99.90;;;;;;5011238;28;20036;-85
2023/04/22 03:26:26;;;;;;;2.95;2.13;;;7.00;99.90;;;;;;5009645;28;20075;-86
2023/04/22 03:28:52;;;;;;;4.80;2.03;;;7.00;99.90;;;;;;5052369;28;20124;-86
2023/04/22 03:31:18;;;;;;;4.32;2.50;;;7.10;99.90;;;;;;5052287;28;20029;-85
2023/04/22 03:33:45;;;;;;;4.05;2.45;;;7.00;99.90;;;;;;5032143;28;20036;-85
2023/04/22 03:36:18;;;;;;;2.67;2.00;;;7.00;99.90;;;;;;5035067;28;20029;-85
2023/04/22 03:38:44;;;;;;;2.90;2.17;;;7.10;99.90;;;;;;5035601;28;20363;-85
2023/04/22 03:41:10;;;;;;;3.33;2.42;;;7.00;99.90;;;;;;5033389;28;20027;-85
2023/04/22 03:43:39;;;;;;;3.37;2.27;;;7.00;99.90;;;;;;5049307;28;20273;-85
2023/04/22 03:46:07;;;;;;;2.92;1.85;;;7.00;99.90;;;;;;5036852;28;20017;-85
2023/04/22 03:48:36;;;;;;;2.70;2.05;;;7.10;99.90;;;;;;5050185;28;20478;-84
2023/04/22 03:51:07;;;;;;;3.35;2.35;;;7.10;99.90;;;;;;5036718;28;20146;-86
2023/04/22 03:53:35;;;;;;;3.97;2.85;;;7.20;99.90;;;;;;5034094;28;20040;-86
2023/04/22 03:56:01;;;;;;;3.13;2.72;;;7.20;99.90;;;;;;5036344;28;20017;-86
2023/04/22 03:58:26;;;;;;;3.95;2.92;;;7.10;99.90;;;;;;5047997;28;20036;-86
2023/04/22 04:00:54;;;;;;;4.15;2.80;;;7.10;99.90;;;;;;5054010;28;20397;-87
2023/04/22 04:03:19;;;;;;;4.22;2.53;;;7.10;99.90;;;;;;5035931;28;20020;-86
2023/04/22 04:05:48;;;;;;;4.05;3.05;;;7.20;99.90;;;;;;5050805;28;20055;-86
2023/04/22 04:08:14;;;;;;;4.70;3.65;;;7.30;99.90;;;;;;5035377;28;20033;-85
2023/04/22 04:10:41;;;;;;;5.60;4.55;;;7.50;99.90;;;;;;5052694;28;20567;-86
2023/04/22 04:13:07;;;;;;;5.70;4.07;;;7.50;99.90;;;;;;5049246;28;20047;-85
2023/04/22 04:15:43;;;;;;;5.20;4.32;;;7.60;99.90;;;;;;5034896;28;20033;-86
2023/04/22 04:18:10;;;;;;;5.80;3.92;;;7.50;99.90;;;;;;5035573;28;20078;-86
2023/04/22 04:20:36;;;;;;;5.22;4.15;;;7.40;99.90;;;;;;5053240;28;20519;-84
2023/04/22 04:23:02;;;;;;;4.57;3.65;;;7.40;99.90;;;;;;5048491;28;20064;-86
2023/04/22 04:25:36;;;;;;;4.72;3.60;;;7.40;99.90;;;;;;5051205;28;20024;-86
2023/04/22 04:28:08;;;;;;;5.68;4.85;;;7.40;99.90;;;;;;5035266;28;20114;-85
2023/04/22 04:30:35;;;;;;;4.78;3.38;;;7.50;99.90;;;;;;5034291;28;20067;-86
2023/04/22 04:33:05;;;;;;;6.40;5.00;;;7.50;99.90;;;;;;5058645;28;20089;-87
2023/04/22 04:35:33;;;;;;;6.90;5.05;;;7.60;99.90;;;;;;5048227;28;20024;-85
2023/04/22 04:38:00;;;;;;;6.20;4.75;;;7.60;99.90;;;;;;5033038;28;20107;-85
2023/04/22 04:40:29;;;;;;;5.35;3.97;;;7.60;99.90;;;;;;5051426;28;20032;-86
2023/04/22 04:43:08;;;;;;;5.40;4.45;;;7.70;99.90;;;;;;5051591;28;20104;-85
2023/04/22 04:45:47;;;;;;;5.95;5.03;;;7.90;99.90;;;;;;5051620;28;20039;-86
2023/04/22 04:48:15;;;;;;;7.32;5.25;;;8.00;99.90;;;;;;5047666;28;20036;-87
2023/04/22 04:50:52;;;;;;;6.75;5.50;;;8.10;99.90;;;;;;5053150;28;20512;-86
2023/04/22 04:53:20;;;;;;;6.35;5.50;;;8.20;99.90;;;;;;5034431;28;20068;-86
2023/04/22 04:55:46;;;;;;;5.80;5.15;;;8.20;99.90;;;;;;5035332;28;20032;-86
2023/04/22 04:58:19;;;;;;;7.43;5.45;;;8.20;99.90;;;;;;5047319;28;20127;-86
2023/04/22 05:00:47;;;;;;;7.63;5.13;;;8.20;99.90;;;;;;5051039;28;20532;-86
2023/04/22 05:03:14;;;;;;;6.93;5.55;;;8.20;99.90;;;;;;5036628;28;20070;-86
2023/04/22 05:05:45;;;;;;;7.13;5.15;;;8.10;99.90;;;;;;5047568;28;20059;-86
2023/04/22 05:08:10;;;;;;;7.25;5.38;;;8.20;99.90;;;;;;5033614;28;20029;-85
2023/04/22 05:10:38;;;;;;;7.05;5.25;;;8.20;99.90;;;;;;5046530;28;20025;-85
2023/04/22 05:13:03;;;;;;;6.28;5.32;;;8.30;99.90;;;;;;5034905;28;20033;-85
2023/04/22 05:15:29;;;;;;;6.43;5.07;;;8.30;99.90;;;;;;5033959;28;20416;-86
2023/04/22 05:17:55;;;;;;;6.72;4.40;;;8.50;99.90;;;;;;5033720;28;20024;-86
2023/04/22 05:20:21;;;;;;;5.82;5.18;;;8.40;99.90;;;;;;5050421;28;20026;-87
2023/04/22 05:22:47;;;;;;;6.72;4.93;;;8.40;99.90;;;;;;5033089;28;20126;-86
2023/04/22 05:25:13;;;;;;;7.07;5.13;;;8.40;99.90;;;;;;5033169;28;20021;-86
2023/04/22 05:27:47;;;;;;;7.90;5.00;;;8.50;99.90;;;;;;5035096;28;20182;-85
2023/04/22 05:30:13;;;;;;;6.53;4.88;;;8.60;99.90;;;;;;5033487;28;20380;-85
2023/04/22 05:32:39;;;;;;;7.18;4.95;;;8.70;99.90;;;;;;5034592;28;20028;-86
2023/04/22 05:35:05;;;;;;;6.80;5.70;;;8.50;99.90;;;;;;5034716;28;20021;-87
2023/04/22 05:37:31;;;;;;;8.75;4.97;;;8.50;99.90;;;;;;5051083;28;20429;-86
2023/04/22 05:39:57;;;;;;;7.40;5.18;;;8.50;99.90;;;;;;5034062;28;20056;-86
2023/04/22 05:42:23;;;;;;;7.20;5.30;;;8.60;99.90;;;;;;5051607;28;20035;-87
2023/04/22 05:44:48;;;;;;;7.38;5.32;;;8.70;99.90;;;;;;5030918;28;20068;-86
2023/04/22 05:47:15;;;;;;;5.80;5.05;;;8.70;99.90;;;;;;5051328;28;20025;-86
2023/04/22 05:49:41;;;;;;;6.65;4.93;;;8.70;99.90;;;;;;5063733;28;20409;-86
2023/04/22 05:52:22;;;;;;;6.38;4.60;;;8.80;99.90;;;;;;5047056;28;20037;-86
2023/04/22 05:54:56;;;;;;;6.20;4.82;;;8.90;99.90;;;;;;5050515;28;20516;-83
2023/04/22 05:57:21;;;;;;;7.55;5.05;;;9.00;99.90;;;;;;5022385;28;20167;-87
2023/04/22 05:59:47;;;;;;;7.05;5.15;;;9.00;99.90;;;;;;5027507;28;20033;-86
2023/04/22 06:02:14;;;;;;;6.43;4.47;;;9.10;99.90;;;;;;5044279;28;20422;-86
2023/04/22 06:04:40;;;;;;;6.82;4.55;;;9.20;99.90;;;;;;5027949;28;20412;-86
2023/04/22 06:07:06;;;;;;;9.05;5.68;;;9.20;99.90;;;;;;5044698;28;20041;-85
2023/04/22 06:09:35;;;;;;;6.90;5.05;;;9.20;99.90;;;;;;5026600;28;20025;-85
2023/04/22 06:12:01;;;;;;;6.22;4.68;;;9.30;99.90;;;;;;5010066;28;20123;-84
2023/04/22 06:14:27;;;;;;;6.10;4.50;;;9.30;99.90;;;;;;5043274;28;20024;-85
2023/04/22 06:16:53;;;;;;;6.47;4.68;;;9.40;99.90;;;;;;5027789;28;20025;-85
2023/04/22 06:19:19;;;;;;;6.95;5.38;;;9.50;99.90;;;;;;5034564;28;20787;-84
2023/04/22 06:21:45;;;;;;;6.50;4.65;;;9.50;99.90;;;;;;5009998;28;20492;-87
2023/04/22 06:24:10;;;;;;;6.80;4.85;;;9.60;99.90;;;;;;5025652;28;20153;-84
2023/04/22 06:26:37;;;;;;;7.30;5.05;;;9.70;99.90;;;;;;5043504;28;20052;-83
2023/04/22 06:29:04;;;;;;;6.35;4.13;;;9.80;99.90;;;;;;5043103;28;20105;-84
2023/04/22 06:31:31;;;;;;;6.50;4.10;;;9.90;99.90;;;;;;5044486;28;20025;-84
2023/04/22 06:33:57;;;;;;;5.28;3.78;;;9.90;99.90;;;;;;5008804;28;20401;-85
2023/04/22 06:36:23;;;;;;;6.93;5.35;;;10.00;99.90;;;;;;5044605;28;20413;-85
2023/04/22 06:38:55;;;;;;;6.03;4.05;;;10.20;99.90;;;;;;5042228;28;20055;-85
2023/04/22 06:41:35;;;;;;;4.30;3.45;;;10.30;99.90;;;;;;5025309;28;20024;-85
2023/04/22 06:44:14;;;;;;;4.75;3.60;;;10.30;99.90;;;;;;5043573;28;20025;-84
2023/04/22 06:46:55;;;;;;;5.13;3.50;;;10.30;99.90;;;;;;5012683;28;20117;-84
2023/04/22 06:49:38;;;;;;;4.53;3.40;;;10.30;99.90;;;;;;5039519;28;20103;-84
2023/04/22 06:52:20;;;;;;;5.57;4.00;;;10.30;99.90;;;;;;4995839;28;20057;-84
2023/04/22 06:54:46;;;;;;;5.63;4.07;;;10.40;99.90;;;;;;5008644;28;20053;-85
2023/04/22 06:57:12;;;;;;;6.03;3.38;;;10.60;99.90;;;;;;5009513;28;20104;-86
2023/04/22 06:59:37;;;;;;;4.65;3.72;;;11.00;99.90;;;;;;5011403;28;20154;-85
2023/04/22 07:02:04;;;;;;;7.70;3.65;;;11.40;99.90;;;;;;5024127;28;20029;-86
2023/04/22 07:04:33;;;;;;;5.13;3.30;;;11.60;99.90;;;;;;5025547;28;20040;-87
2023/04/22 07:06:59;;;;;;;4.88;3.78;;;11.90;99.90;;;;;;5023494;28;20025;-89
2023/04/22 07:09:25;;;;;;;4.43;3.13;;;12.10;99.90;;;;;;5008985;28;20026;-86
2023/04/22 07:11:54;;;;;;;4.68;3.28;;;12.30;99.90;;;;;;5007481;28;20041;-87
2023/04/22 07:14:20;;;;;;;4.47;2.50;;;12.50;99.90;;;;;;5006556;28;20151;-85
2023/04/22 07:16:46;;;;;;;4.65;2.55;;;12.70;99.90;;;;;;5021570;28;20484;-87
2023/04/22 07:19:12;;;;;;;3.38;2.38;;;13.00;99.90;;;;;;5024075;28;20486;-83
2023/04/22 07:21:37;;;;;;;3.33;2.20;;;13.20;99.90;;;;;;5037053;28;20021;-89
2023/04/22 07:24:03;;;;;;;3.42;2.15;;;13.40;99.90;;;;;;5024403;28;20470;-88
2023/04/22 07:26:30;;;;;;;4.07;2.30;;;13.50;99.90;;;;;;5024924;28;20557;-88
2023/04/22 07:28:56;;;;;;;3.83;2.03;;;13.50;99.90;;;;;;5009895;28;20024;-88
2023/04/22 07:31:22;;;;;;;3.22;2.15;;;13.60;99.90;;;;;;5024069;28;20025;-88
2023/04/22 07:33:48;;;;;;;2.67;1.50;;;13.70;99.90;;;;;;5024235;28;20096;-87
2023/04/22 07:36:13;;;;;;;3.35;1.45;;;14.00;99.90;;;;;;5028522;28;20086;-87
2023/04/22 07:38:39;;;;;;;3.25;2.00;;;14.00;99.90;;;;;;5008414;28;20045;-86
2023/04/22 07:41:05;;;;;;;3.88;2.08;;;14.20;99.90;;;;;;5026248;28;20030;-86
2023/04/22 07:43:30;;;;;;;3.03;2.20;;;14.20;99.90;;;;;;5011892;28;20033;-86
2023/04/22 07:45:56;;;;;;;2.40;1.70;;;14.30;99.90;;;;;;5010603;28;20030;-87
2023/04/22 07:48:22;;;;;;;2.00;1.23;;;14.60;99.90;;;;;;5011824;28;20034;-85
2023/04/22 07:50:47;;;;;;;2.22;1.40;;;14.70;99.90;;;;;;5012130;28;20033;-88
2023/04/22 07:53:14;;;;;;;2.22;1.30;;;14.80;99.90;;;;;;5030867;28;20053;-88
2023/04/22 07:55:40;;;;;;;3.28;1.75;;;15.00;99.90;;;;;;5047626;28;20041;-85
2023/04/22 07:58:06;;;;;;;2.50;1.92;;;15.10;99.90;;;;;;5016204;28;20049;-89
2023/04/22 08:00:35;;;;;;;2.40;1.58;;;15.10;99.90;;;;;;5031342;28;20109;-88
2023/04/22 08:03:01;;;;;;;3.13;2.33;;;15.30;99.90;;;;;;5045422;28;20116;-89
2023/04/22 08:05:27;;;;;;;2.80;1.90;;;15.10;99.90;;;;;;5009865;28;20041;-83
2023/04/22 08:07:53;;;;;;;2.60;1.77;;;15.30;99.90;;;;;;5048205;28;20037;-87
2023/04/22 08:10:18;;;;;;;2.53;2.00;;;15.50;99.90;;;;;;5048728;28;20508;-88
2023/04/22 08:12:44;;;;;;;3.55;2.03;;;15.60;99.90;;;;;;5014414;28;20120;-89
2023/04/22 08:15:11;;;;;;;2.15;1.13;;;15.50;99.90;;;;;;5031144;28;20108;-83
2023/04/22 08:17:37;;;;;;;2.78;1.70;;;15.60;99.90;;;;;;5029582;28;20047;-87
2023/04/22 08:20:03;;;;;;;2.95;2.00;;;15.10;99.90;;;;;;5048225;28;20028;-85
2023/04/22 08:22:30;;;;;;;2.92;2.00;;;15.00;99.90;;;;;;5031873;28;20082;-88
2023/04/22 08:24:56;;;;;;;3.83;2.17;;;14.90;99.90;;;;;;5014294;28;20033;-88
2023/04/22 08:27:22;;;;;;;2.88;1.90;;;15.00;99.90;;;;;;5031213;28;20036;-89
2023/04/22 08:29:48;;;;;;;3.35;1.73;;;15.40;99.90;;;;;;5030161;28;20029;-87
2023/04/22 08:32:13;;;;;;;3.33;1.35;;;15.60;99.90;;;;;;5014429;28;20223;-88
2023/04/22 08:34:39;;;;;;;2.75;1.55;;;15.70;99.90;;;;;;5014080;28;20033;-87
2023/04/22 08:37:05;;;;;;;2.20;1.25;;;16.00;99.90;;;;;;5030112;28;20036;-87
2023/04/22 08:39:30;;;;;;;3.13;1.70;;;16.30;99.90;;;;;;5030720;28;20109;-84
2023/04/22 08:41:57;;;;;;;2.17;1.23;;;16.10;99.90;;;;;;5014074;28;20676;-87
2023/04/22 08:44:22;;;;;;;2.95;1.98;;;16.30;99.90;;;;;;5025762;28;20041;-85
2023/04/22 08:46:50;;;;;;;4.07;1.38;;;16.10;99.90;;;;;;5031480;28;20029;-88
2023/04/22 08:49:16;;;;;;;2.08;1.42;;;16.20;99.90;;;;;;5064369;28;20032;-88
2023/04/22 08:51:43;;;;;;;3.47;1.50;;;16.30;99.90;;;;;;5031081;28;20438;-84
2023/04/22 08:54:10;;;;;;;2.30;1.02;;;16.50;99.90;;;;;;5047537;28;20038;-89
2023/04/22 08:56:39;;;;;;;2.20;1.00;;;16.90;99.90;;;;;;5049054;28;20032;-89
2023/04/22 08:59:05;;;;;;;1.50;0.70;;;17.20;99.90;;;;;;5033292;28;20445;-86
2023/04/22 09:01:32;;;;;;;1.77;1.00;;;17.40;99.90;;;;;;5066922;28;20016;-83
2023/04/22 09:03:59;;;;;;;1.80;1.05;;;17.10;99.90;;;;;;5048770;28;20090;-80
2023/04/22 09:06:26;;;;;;;2.35;1.20;;;17.40;99.90;;;;;;5034281;28;20032;-87
2023/04/22 09:08:53;;;;;;;2.10;1.35;;;17.40;99.90;;;;;;5051604;28;20035;-88
2023/04/22 09:11:19;;;;;;;1.75;1.05;;;17.30;99.90;;;;;;5050530;28;20036;-89
2023/04/22 09:13:46;;;;;;;2.78;0.82;;;17.60;99.90;;;;;;5067127;28;20040;-83
2023/04/22 09:16:11;;;;;;;1.50;0.75;;;17.60;99.90;;;;;;5053202;28;20058;-83
2023/04/22 09:18:46;;;;;;;2.97;1.40;;;17.90;99.90;;;;;;5050274;28;20381;-85
2023/04/22 09:21:12;;;;;;;2.03;1.05;;;17.70;99.90;;;;;;5035735;28;20028;-88
2023/04/22 09:24:05;;;;;;;2.10;1.23;;;17.80;99.90;;;;;;5036132;28;20021;-83
2023/04/22 09:26:31;;;;;;;1.90;1.20;;;18.50;99.90;;;;;;5047318;28;22176;-87
2023/04/22 09:28:58;;;;;;;2.25;1.20;;;18.20;99.90;;;;;;5051545;28;20024;-85
2023/04/22 09:31:24;;;;;;;2.15;1.38;;;18.30;99.90;;;;;;5035744;28;20032;-84
2023/04/22 09:33:56;;;;;;;1.85;0.90;;;18.20;99.90;;;;;;5035877;28;20041;-88
2023/04/22 09:36:24;;;;;;;2.40;1.13;;;18.50;99.90;;;;;;5052550;28;20047;-84
2023/04/22 09:38:55;;;;;;;1.70;0.88;;;18.80;99.90;;;;;;5064482;28;20090;-85
2023/04/22 09:41:31;;;;;;;2.00;1.10;;;18.90;99.90;;;;;;5035332;28;20115;-88
2023/04/22 09:43:58;;;;;;;1.95;1.00;;;18.90;99.90;;;;;;5032678;28;20489;-89
2023/04/22 09:46:24;;;;;;;1.77;0.90;;;19.10;99.90;;;;;;5050021;28;20071;-87
2023/04/22 09:48:52;;;;;;;1.70;0.90;;;19.30;99.90;;;;;;5051597;28;20032;-89
2023/04/22 09:51:18;;;;;;;1.48;0.77;;;19.20;99.90;;;;;;5034679;28;20423;-90
2023/04/22 09:53:45;;;;;;;2.20;1.10;;;19.10;99.90;;;;;;5033153;28;20040;-87
2023/04/22 09:56:11;;;;;;;1.30;0.80;;;19.00;99.90;;;;;;5050326;28;20035;-88
2023/04/22 09:58:41;;;;;;;2.67;1.52;;;18.90;99.90;;;;;;5029411;28;20040;-89
2023/04/22 10:01:07;;;;;;;1.40;0.70;;;18.80;99.90;;;;;;5045410;28;20031;-87
2023/04/22 10:03:33;;;;;;;1.70;0.70;;;19.10;99.90;;;;;;5034029;28;20032;-81
2023/04/22 10:05:58;;;;;;;1.75;1.00;;;19.30;99.90;;;;;;5030887;28;20122;-81
2023/04/22 10:08:24;;;;;;;2.75;1.00;;;19.30;99.90;;;;;;5016110;28;20119;-81
2023/04/22 10:10:50;;;;;;;2.03;0.70;;;19.30;99.90;;;;;;5015209;28;20040;-81
2023/04/22 10:13:16;;;;;;;4.00;1.20;;;19.30;99.90;;;;;;5017812;28;20068;-81
2023/04/22 10:15:47;;;;;;;2.17;1.10;;;19.10;99.90;;;;;;5033725;28;20036;-81
2023/04/22 10:18:17;;;;;;;1.77;1.00;;;18.50;99.90;;;;;;5017806;28;20036;-80
2023/04/22 10:20:44;;;;;;;3.50;1.63;;;18.60;99.90;;;;;;5016910;28;20098;-81
2023/04/22 10:23:21;;;;;;;1.98;1.10;;;18.40;99.90;;;;;;5037519;28;20032;-85
2023/04/22 10:25:50;;;;;;;1.98;1.00;;;19.50;99.90;;;;;;5054864;28;20052;-80
2023/04/22 10:28:17;;;;;;;1.65;0.80;;;20.30;99.90;;;;;;5019964;28;20083;-82
2023/04/22 10:30:42;;;;;;;1.80;0.80;;;20.40;99.90;;;;;;5021582;28;20074;-81
2023/04/22 10:33:22;;;;;;;2.25;1.00;;;20.20;99.90;;;;;;5035816;28;20048;-80
2023/04/22 10:36:07;;;;;;;1.65;0.80;;;20.10;99.90;;;;;;5056458;28;20068;-80
2023/04/22 10:38:35;;;;;;;1.75;0.80;;;20.20;99.90;;;;;;5021524;28;20033;-83
2023/04/22 10:41:02;;;;;;;1.80;0.80;;;20.50;99.90;;;;;;5078941;28;20532;-90
2023/04/22 10:43:48;;;;;;;1.55;0.80;;;20.40;99.90;;;;;;5034417;28;20033;-88
2023/04/22 10:46:48;;;;;;;1.63;0.98;;;20.10;99.90;;;;;;5049095;28;20035;-84
2023/04/22 10:49:21;;;;;;;1.30;0.70;;;20.30;99.90;;;;;;5018873;28;20080;-83
2023/04/22 10:51:48;;;;;;;1.95;0.82;;;20.50;99.90;;;;;;5036944;28;20480;-85
2023/04/22 10:54:37;;;;;;;2.50;0.80;;;20.40;99.90;;;;;;5029263;28;20112;-83
2023/04/22 10:57:02;;;;;;;2.55;1.00;;;20.50;99.90;;;;;;5014758;28;20135;-88
2023/04/22 10:59:30;;;;;;;1.92;0.90;;;20.70;99.90;;;;;;5039371;28;20133;-81
2023/04/22 11:02:06;;;;;;;2.33;0.93;;;20.80;99.90;;;;;;5028409;28;20485;-84
2023/04/22 11:04:32;;;;;;;1.60;0.77;;;20.50;99.90;;;;;;5032601;28;20025;-87
2023/04/22 11:07:21;;;;;;;2.47;0.90;;;20.50;99.90;;;;;;5033841;28;20033;-83
2023/04/22 11:10:00;;;;;;;1.80;0.95;;;21.30;99.90;;;;;;5046005;28;20032;-84
2023/04/22 11:12:37;;;;;;;1.90;0.80;;;21.30;99.90;;;;;;5033602;28;20098;-88
2023/04/22 11:15:10;;;;;;;2.60;1.33;;;21.00;99.90;;;;;;5066148;28;20075;-82
2023/04/22 11:17:37;;;;;;;2.67;1.73;;;21.10;99.90;;;;;;5065876;28;20025;-82
2023/04/22 11:20:06;;;;;;;1.90;1.10;;;20.10;99.90;;;;;;5034528;28;20059;-88
2023/04/22 11:22:35;;;;;;;1.90;0.80;;;20.20;99.90;;;;;;5065254;28;20056;-88
2023/04/22 11:25:02;;;;;;;1.75;0.75;;;20.30;99.90;;;;;;5050557;28;20029;-89
2023/04/22 11:27:29;;;;;;;1.60;0.93;;;20.20;99.90;;;;;;5033251;28;20151;-82
2023/04/22 11:30:08;;;;;;;1.42;0.70;;;20.30;99.90;;;;;;5041044;28;20028;-81
2023/04/22 11:32:36;;;;;;;2.08;0.75;;;20.50;99.90;;;;;;5065586;28;20066;-80
2023/04/22 11:35:04;;;;;;;3.67;1.10;;;20.70;99.90;;;;;;5067392;28;20027;-81
2023/04/22 11:37:30;;;;;;;2.22;0.90;;;20.50;99.90;;;;;;5050381;28;20021;-79
2023/04/22 11:40:00;;;;;;;1.60;0.90;;;20.40;99.90;;;;;;5045957;28;20098;-80
2023/04/22 11:42:26;;;;;;;2.08;0.60;;;20.40;99.90;;;;;;5046200;28;20432;-80
2023/04/22 11:44:52;;;;;;;2.20;0.57;;;20.70;99.90;;;;;;5047256;28;20147;-80
2023/04/22 11:47:18;;;;;;;1.60;0.70;;;20.80;99.90;;;;;;5033872;28;20029;-82
2023/04/22 11:50:03;;;;;;;3.17;1.42;;;20.50;99.90;;;;;;5032678;28;20106;-81
2023/04/22 11:52:44;;;;;;;2.83;0.98;;;20.10;99.90;;;;;;5044808;28;20090;-81
2023/04/22 11:55:14;;;;;;;2.78;1.45;;;20.10;99.90;;;;;;5065157;28;20428;-80
2023/04/22 11:57:40;;;;;;;1.92;0.90;;;20.10;99.90;;;;;;5030496;28;20071;-79
2023/04/22 12:00:12;;;;;;;1.45;0.93;;;20.30;99.90;;;;;;5067321;28;20115;-78
2023/04/22 12:02:39;;;;;;;1.60;0.60;;;20.30;99.90;;;;;;5048092;28;20472;-79
2023/04/22 12:05:10;;;;;;;1.80;0.90;;;20.00;99.90;;;;;;5050473;28;20036;-80
2023/04/22 12:07:36;;;;;;;1.67;0.90;;;19.70;99.90;;;;;;5029221;28;20090;-83
2023/04/22 12:10:06;;;;;;;1.92;0.80;;;19.70;99.90;;;;;;5066565;28;20021;-83
2023/04/22 12:12:34;;;;;;;2.00;0.60;;;19.60;99.90;;;;;;5065390;28;20152;-82
2023/04/22 12:15:09;;;;;;;2.03;0.50;;;19.50;99.90;;;;;;5035556;28;20035;-83
2023/04/22 12:17:35;;;;;;;2.67;0.68;;;19.60;99.90;;;;;;5065286;28;20076;-82
2023/04/22 12:20:03;;;;;;;1.23;0.60;;;19.50;99.90;;;;;;5066438;28;20025;-82
2023/04/22 12:22:29;;;;;;;1.48;0.80;;;19.50;99.90;;;;;;5047036;28;20025;-81
2023/04/22 12:25:01;;;;;;;1.00;0.50;;;19.30;99.90;;;;;;5048889;28;20116;-84
2023/04/22 12:27:27;;;;;;;1.38;0.60;;;19.20;99.90;;;;;;5034420;28;20120;-82
2023/04/22 12:29:55;;;;;;;1.60;0.50;;;19.00;99.90;;;;;;5066367;28;20099;-82
2023/04/22 12:32:22;;;;;;;1.77;0.60;;;18.90;99.90;;;;;;5030808;28;20040;-82
2023/04/22 12:34:48;;;;;;;2.00;0.60;;;18.80;99.90;;;;;;5046243;28;20041;-82
2023/04/22 12:37:15;;;;;;;2.10;0.60;;;18.80;99.90;;;;;;5064812;28;20025;-84
2023/04/22 12:39:40;;;;;;;1.48;0.77;;;18.70;99.90;;;;;;5033888;28;20250;-84
2023/04/22 12:42:06;;;;;;;1.50;0.60;;;18.60;99.90;;;;;;5047080;28;20017;-82
2023/04/22 12:44:32;;;;;;;1.35;0.50;;;18.70;99.90;;;;;;5046532;28;20408;-87
2023/04/22 12:46:58;;;;;;;1.55;0.70;;;18.70;99.90;;;;;;5051070;28;20050;-81
2023/04/22 12:49:25;;;;;;;1.60;0.50;;;18.70;99.90;;;;;;5050713;28;20036;-83
2023/04/22 12:51:51;;;;;;;2.45;0.82;;;18.60;99.90;;;;;;5033784;28;20175;-83
2023/04/22 12:54:18;;;;;;;1.60;0.60;;;18.60;99.90;;;;;;5059425;28;20125;-83
2023/04/22 12:56:45;;;;;;;1.42;0.63;;;18.50;99.90;;;;;;5030271;28;20839;-80